createdAt,value
2022-12-11T00:01:39.301Z,11.73
2022-12-11T00:03:41.218Z,12.60
2022-12-11T00:05:43.566Z,13.53
2022-12-11T00:07:45.368Z,11.43
2022-12-11T00:09:47.102Z,12.03
2022-12-11T00:11:49.134Z,10.57
2022-12-11T00:13:51.032Z,11.60
2022-12-11T00:15:52.724Z,9.83
2022-12-11T00:17:54.500Z,9.50
2022-12-11T00:19:56.207Z,9.67
2022-12-11T00:21:57.936Z,10.37
2022-12-11T00:23:59.915Z,11.90
2022-12-11T00:26:04.798Z,9.53
2022-12-11T00:28:06.534Z,9.60
2022-12-11T00:30:08.847Z,10.57
2022-12-11T00:32:10.610Z,9.73
2022-12-11T00:34:12.473Z,9.50
2022-12-11T00:36:17.079Z,10.00
2022-12-11T00:38:21.172Z,10.27
2022-12-11T00:40:22.910Z,9.63
2022-12-11T00:42:24.653Z,8.83
2022-12-11T00:44:26.429Z,9.33
2022-12-11T00:46:28.264Z,8.93
2022-12-11T00:48:30.900Z,11.20
2022-12-11T00:50:33.513Z,10.90
2022-12-11T00:52:35.240Z,10.30
2022-12-11T00:54:36.944Z,11.20
2022-12-11T00:56:38.705Z,9.30
2022-12-11T00:58:40.542Z,10.73
2022-12-11T01:00:43.674Z,11.90
2022-12-11T01:02:45.458Z,11.07
2022-12-11T01:04:47.266Z,10.73
2022-12-11T01:06:48.979Z,10.63
2022-12-11T01:09:13.696Z,10.90
2022-12-11T01:11:16.683Z,9.50
2022-12-11T01:13:18.484Z,10.63
2022-12-11T01:15:23.046Z,9.93
2022-12-11T01:17:24.793Z,10.37
2022-12-11T01:19:26.728Z,9.97
2022-12-11T01:21:28.500Z,11.30
2022-12-11T01:23:30.213Z,10.33
2022-12-11T01:25:33.271Z,10.40
2022-12-11T01:27:35.187Z,11.50
2022-12-11T01:29:36.874Z,10.17
2022-12-11T01:31:38.877Z,11.50
2022-12-11T01:33:40.856Z,12.03
2022-12-11T01:35:42.609Z,12.43
2022-12-11T01:37:44.639Z,9.97
2022-12-11T01:39:46.366Z,10.43
2022-12-11T01:41:48.135Z,10.53
2022-12-11T01:43:58.707Z,10.20
2022-12-11T01:46:00.676Z,9.37
2022-12-11T01:48:12.138Z,9.97
2022-12-11T01:50:14.146Z,9.33
2022-12-11T01:52:20.475Z,10.70
2022-12-11T01:54:24.189Z,10.27
2022-12-11T01:56:25.986Z,12.00
2022-12-11T01:58:30.387Z,10.77
2022-12-11T02:00:32.224Z,10.40
2022-12-11T02:02:34.148Z,11.80
2022-12-11T02:04:38.017Z,9.27
2022-12-11T02:06:45.388Z,9.57
2022-12-11T02:08:47.223Z,11.93
2022-12-11T02:11:19.786Z,12.33
2022-12-11T02:13:34.127Z,9.10
2022-12-11T02:15:47.569Z,11.67
2022-12-11T02:17:52.964Z,11.67
2022-12-11T02:20:06.731Z,11.83
2022-12-11T02:22:13.484Z,10.53
2022-12-11T02:24:26.161Z,12.10
2022-12-11T02:27:00.628Z,10.93
2022-12-11T02:29:06.908Z,10.70
2022-12-11T02:31:14.695Z,10.23
2022-12-11T02:33:17.019Z,11.63
2022-12-11T02:35:38.686Z,11.90
2022-12-11T02:37:42.701Z,11.00
2022-12-11T02:39:45.777Z,11.07
2022-12-11T02:41:50.820Z,12.30
2022-12-11T02:43:53.465Z,10.73
2022-12-11T02:45:55.796Z,12.87
2022-12-11T02:47:59.488Z,12.23
2022-12-11T02:50:02.804Z,10.37
2022-12-11T02:52:06.507Z,11.43
2022-12-11T02:54:21.693Z,11.37
2022-12-11T02:56:45.284Z,10.30
2022-12-11T02:58:55.297Z,12.90
2022-12-11T03:01:00.266Z,10.40
2022-12-11T03:03:02.450Z,11.93
2022-12-11T03:05:04.479Z,11.50
2022-12-11T03:07:15.966Z,12.37
2022-12-11T03:09:17.814Z,11.60
2022-12-11T03:11:19.530Z,12.57
2022-12-11T03:13:22.895Z,13.27
2022-12-11T03:15:35.283Z,13.70
2022-12-11T03:17:52.400Z,11.83
2022-12-11T03:20:22.862Z,11.20
2022-12-11T03:22:42.655Z,13.03
2022-12-11T03:25:23.884Z,13.53
2022-12-11T03:28:04.779Z,15.07
2022-12-11T03:30:08.633Z,13.00
2022-12-11T03:32:15.939Z,13.67
2022-12-11T03:34:25.879Z,12.37
2022-12-11T03:36:36.312Z,12.00
2022-12-11T03:38:46.839Z,13.83
2022-12-11T03:40:52.654Z,12.87
2022-12-11T03:42:56.838Z,14.03
2022-12-11T03:45:00.319Z,14.73
2022-12-11T03:47:03.815Z,15.73
2022-12-11T03:49:13.455Z,14.47
2022-12-11T03:51:15.728Z,14.77
2022-12-11T03:53:19.023Z,16.63
2022-12-11T03:55:21.928Z,15.07
2022-12-11T03:57:27.466Z,14.07
2022-12-11T03:59:29.205Z,16.07
2022-12-11T04:01:31.146Z,13.97
2022-12-11T04:03:32.872Z,15.13
2022-12-11T04:05:34.642Z,14.20
2022-12-11T04:07:36.508Z,18.67
2022-12-11T04:09:38.247Z,16.07
2022-12-11T04:11:39.959Z,13.80
2022-12-11T04:13:42.225Z,16.13
2022-12-11T04:15:43.973Z,17.40
2022-12-11T04:18:04.589Z,15.17
2022-12-11T04:20:39.031Z,13.67
2022-12-11T04:22:59.388Z,16.83
2022-12-11T04:25:06.187Z,13.70
2022-12-11T04:27:07.972Z,15.13
2022-12-11T04:29:09.793Z,14.97
2022-12-11T04:31:16.869Z,16.63
2022-12-11T04:33:18.627Z,16.23
2022-12-11T04:35:21.503Z,15.37
2022-12-11T04:37:23.197Z,17.53
2022-12-11T04:39:24.928Z,15.20
2022-12-11T04:41:26.741Z,14.80
2022-12-11T04:43:28.784Z,14.47
2022-12-11T04:45:30.523Z,18.73
2022-12-11T04:47:32.352Z,15.20
2022-12-11T04:49:34.183Z,16.83
2022-12-11T04:51:35.894Z,15.40
2022-12-11T04:53:37.786Z,16.93
2022-12-11T04:55:39.847Z,16.23
2022-12-11T04:57:41.623Z,14.23
2022-12-11T04:59:43.374Z,15.70
2022-12-11T05:01:45.384Z,16.60
2022-12-11T05:03:47.572Z,17.30
2022-12-11T05:05:53.444Z,17.23
2022-12-11T05:07:55.258Z,16.77
2022-12-11T05:09:57.017Z,15.27
2022-12-11T05:11:58.747Z,16.13
2022-12-11T05:14:00.574Z,14.63
2022-12-11T05:16:05.165Z,15.07
2022-12-11T05:18:07.050Z,16.03
2022-12-11T05:20:09.891Z,17.90
2022-12-11T05:22:11.634Z,15.80
2022-12-11T05:24:13.421Z,17.50
2022-12-11T05:26:18.209Z,16.67
2022-12-11T05:28:20.023Z,17.87
2022-12-11T05:30:21.731Z,17.07
2022-12-11T05:32:23.645Z,17.33
2022-12-11T05:34:25.356Z,16.03
2022-12-11T05:36:32.479Z,16.63
2022-12-11T05:38:34.881Z,15.53
2022-12-11T05:40:36.584Z,17.70
2022-12-11T05:42:38.516Z,15.63
2022-12-11T05:44:40.240Z,16.80
2022-12-11T05:46:42.034Z,16.80
2022-12-11T05:48:46.256Z,16.77
2022-12-11T05:51:01.145Z,15.90
2022-12-11T05:53:02.903Z,16.80
2022-12-11T05:55:05.016Z,17.50
2022-12-11T05:57:06.823Z,16.73
2022-12-11T05:59:09.234Z,17.87
2022-12-11T06:01:13.195Z,15.93
2022-12-11T06:03:15.325Z,17.17
2022-12-11T06:05:17.331Z,17.33
2022-12-11T06:07:19.239Z,17.90
2022-12-11T06:09:21.119Z,17.07
2022-12-11T06:11:24.296Z,15.17
2022-12-11T06:13:26.899Z,18.30
2022-12-11T06:15:28.679Z,17.77
2022-12-11T06:17:30.550Z,16.90
2022-12-11T06:19:36.741Z,15.07
2022-12-11T06:21:38.885Z,15.67
2022-12-11T06:23:41.699Z,17.50
2022-12-11T06:25:43.428Z,15.97
2022-12-11T06:27:45.158Z,17.47
2022-12-11T06:29:46.912Z,16.47
2022-12-11T06:31:48.757Z,18.43
2022-12-11T06:33:50.678Z,16.60
2022-12-11T06:35:53.013Z,16.57
2022-12-11T06:37:54.861Z,14.60
2022-12-11T06:39:56.606Z,16.70
2022-12-11T06:41:58.291Z,17.30
2022-12-11T06:43:59.986Z,15.60
2022-12-11T06:46:09.887Z,15.47
2022-12-11T06:48:11.665Z,13.53
2022-12-11T06:50:13.414Z,16.63
2022-12-11T06:52:18.581Z,15.87
2022-12-11T06:54:27.915Z,15.00
2022-12-11T06:56:29.607Z,16.20
2022-12-11T06:58:31.873Z,18.33
2022-12-11T07:00:35.923Z,15.37
2022-12-11T07:02:37.729Z,13.77
2022-12-11T07:04:39.546Z,15.80
2022-12-11T07:06:41.292Z,14.90
2022-12-11T07:08:43.789Z,15.97
2022-12-11T07:10:45.681Z,15.10
2022-12-11T07:12:47.489Z,14.47
2022-12-11T07:14:49.251Z,17.27
2022-12-11T07:16:51.141Z,15.70
2022-12-11T07:18:53.153Z,15.63
2022-12-11T07:20:55.004Z,17.90
2022-12-11T07:22:56.806Z,14.90
2022-12-11T07:24:58.594Z,16.00
2022-12-11T07:27:00.293Z,13.37
2022-12-11T07:29:02.006Z,14.67
2022-12-11T07:31:17.618Z,16.07
2022-12-11T07:33:19.504Z,15.60
2022-12-11T07:35:21.224Z,14.53
2022-12-11T07:37:22.963Z,14.50
2022-12-11T07:39:24.785Z,15.60
2022-12-11T07:41:28.833Z,14.87
2022-12-11T07:43:30.586Z,14.30
2022-12-11T07:45:32.467Z,16.33
2022-12-11T07:47:34.385Z,15.83
2022-12-11T07:49:36.190Z,15.73
2022-12-11T07:51:38.737Z,15.53
2022-12-11T07:53:40.837Z,15.90
2022-12-11T07:55:42.547Z,15.43
2022-12-11T07:57:44.262Z,16.10
2022-12-11T07:59:47.004Z,15.43
2022-12-11T08:01:48.808Z,14.77
2022-12-11T08:03:51.086Z,19.03
2022-12-11T08:05:53.384Z,16.37
2022-12-11T08:07:55.795Z,15.00
2022-12-11T08:09:57.615Z,16.83
2022-12-11T08:11:59.369Z,15.13
2022-12-11T08:14:01.263Z,16.03
2022-12-11T08:16:07.739Z,15.97
2022-12-11T08:18:09.498Z,15.33
2022-12-11T08:20:11.419Z,15.30
2022-12-11T08:22:14.486Z,16.80
2022-12-11T08:24:20.317Z,15.83
2022-12-11T08:26:25.073Z,17.53
2022-12-11T08:28:27.450Z,15.93
2022-12-11T08:30:29.302Z,15.97
2022-12-11T08:32:31.140Z,17.27
2022-12-11T08:34:33.414Z,16.33
2022-12-11T08:36:35.173Z,17.07
2022-12-11T08:38:37.544Z,13.90
2022-12-11T08:40:39.250Z,14.23
2022-12-11T08:42:41.007Z,16.00
2022-12-11T08:44:42.727Z,15.10
2022-12-11T08:46:44.505Z,14.57
2022-12-11T08:48:46.283Z,16.17
2022-12-11T08:50:47.956Z,16.73
2022-12-11T08:52:49.634Z,16.20
2022-12-11T08:54:51.391Z,16.20
2022-12-11T08:56:57.724Z,13.13
2022-12-11T08:59:01.163Z,15.40
2022-12-11T09:01:09.702Z,16.53
2022-12-11T09:03:13.078Z,15.40
2022-12-11T09:05:15.053Z,13.20
2022-12-11T09:07:16.744Z,15.77
2022-12-11T09:09:18.945Z,15.53
2022-12-11T09:11:23.286Z,13.70
2022-12-11T09:13:25.070Z,14.03
2022-12-11T09:15:26.737Z,13.07
2022-12-11T09:17:28.448Z,15.67
2022-12-11T09:19:32.419Z,13.37
2022-12-11T09:21:34.692Z,14.43
2022-12-11T09:23:36.952Z,15.50
2022-12-11T09:25:40.540Z,14.53
2022-12-11T09:27:42.269Z,14.50
2022-12-11T09:29:43.999Z,13.00
2022-12-11T09:31:46.873Z,15.33
2022-12-11T09:33:50.954Z,14.13
2022-12-11T09:35:59.596Z,13.73
2022-12-11T09:38:01.282Z,17.03
2022-12-11T09:40:07.638Z,17.87
2022-12-11T09:42:25.106Z,15.97
2022-12-11T09:44:48.504Z,13.77
2022-12-11T09:46:51.848Z,13.77
2022-12-11T09:48:54.139Z,13.97
2022-12-11T09:50:56.331Z,13.67
2022-12-11T09:53:17.667Z,13.67
2022-12-11T09:55:24.712Z,13.53
2022-12-11T09:57:32.068Z,12.60
2022-12-11T10:00:04.240Z,11.27
2022-12-11T10:02:38.154Z,13.07
2022-12-11T10:05:01.943Z,12.67
2022-12-11T10:07:16.582Z,14.57
2022-12-11T10:09:40.085Z,12.40
2022-12-11T10:11:56.730Z,14.37
2022-12-11T10:14:20.676Z,13.20
2022-12-11T10:16:31.584Z,13.60
2022-12-11T10:18:34.357Z,13.73
2022-12-11T10:20:39.421Z,14.17
2022-12-11T10:22:41.406Z,14.47
2022-12-11T10:27:20.545Z,13.47
2022-12-11T10:29:22.409Z,13.17
2022-12-11T10:31:49.993Z,13.37
2022-12-11T10:33:56.322Z,15.13
2022-12-11T10:35:58.533Z,13.40
2022-12-11T10:38:30.843Z,13.00
2022-12-11T10:40:33.882Z,13.30
2022-12-11T10:42:37.229Z,12.23
2022-12-11T10:44:40.710Z,10.90
2022-12-11T10:46:42.633Z,11.70
2022-12-11T10:48:58.797Z,11.43
2022-12-11T10:51:05.990Z,12.37
2022-12-11T10:53:22.604Z,13.13
2022-12-11T10:55:46.242Z,11.80
2022-12-11T10:58:27.937Z,12.20
2022-12-11T11:00:53.839Z,11.47
2022-12-11T11:02:56.864Z,11.33
2022-12-11T11:05:00.860Z,12.60
2022-12-11T11:07:03.804Z,12.10
2022-12-11T11:09:29.509Z,12.80
2022-12-11T11:11:34.544Z,14.10
2022-12-11T11:13:36.667Z,13.10
2022-12-11T11:15:38.450Z,11.27
2022-12-11T11:18:10.949Z,12.37
2022-12-11T11:20:16.077Z,11.10
2022-12-11T11:22:19.561Z,11.73
2022-12-11T11:24:28.282Z,12.23
2022-12-11T11:26:56.699Z,12.17
2022-12-11T11:28:58.040Z,15.10
2022-12-11T11:31:04.221Z,11.93
2022-12-11T11:33:13.296Z,11.90
2022-12-11T11:35:22.402Z,12.60
2022-12-11T11:37:33.970Z,13.93
2022-12-11T11:39:45.163Z,13.33
2022-12-11T11:42:13.948Z,11.80
2022-12-11T11:44:21.455Z,11.77
2022-12-11T11:46:36.767Z,12.43
2022-12-11T11:49:14.017Z,12.03
2022-12-11T11:51:29.247Z,10.97
2022-12-11T11:53:40.710Z,10.87
2022-12-11T11:56:03.986Z,11.53
2022-12-11T11:58:24.488Z,13.13
2022-12-11T12:00:33.371Z,11.40
2022-12-11T12:02:35.689Z,13.23
2022-12-11T12:04:37.534Z,12.37
2022-12-11T12:07:00.681Z,12.47
2022-12-11T12:09:02.374Z,12.13
2022-12-11T12:11:11.915Z,11.43
2022-12-11T12:13:50.510Z,12.30
2022-12-11T12:15:57.519Z,11.03
2022-12-11T12:18:21.372Z,11.45
2022-12-11T12:21:04.977Z,10.57
2022-12-11T12:23:44.050Z,10.67
2022-12-11T12:26:04.447Z,10.70
2022-12-11T12:28:22.375Z,12.00
2022-12-11T12:30:24.395Z,12.70
2022-12-11T12:32:38.125Z,12.70
2022-12-11T12:34:46.906Z,11.65
2022-12-11T12:36:55.918Z,10.10
2022-12-11T12:39:15.040Z,9.07
2022-12-11T12:41:24.780Z,8.97
2022-12-11T12:43:38.511Z,10.17
2022-12-11T12:46:10.776Z,9.87
2022-12-11T12:48:12.551Z,10.50
2022-12-11T12:50:18.015Z,8.65
2022-12-11T12:52:24.021Z,9.90
2022-12-11T12:54:27.530Z,8.20
2022-12-11T12:56:31.004Z,8.83
2022-12-11T12:58:35.914Z,8.32
2022-12-11T13:00:40.573Z,9.38
2022-12-11T13:02:50.565Z,9.02
2022-12-11T13:05:20.288Z,9.18
2022-12-11T13:07:27.288Z,10.18
2022-12-11T13:09:29.045Z,8.00
2022-12-11T13:11:34.197Z,9.93
2022-12-11T13:13:42.156Z,9.30
2022-12-11T13:15:44.041Z,8.50
2022-12-11T13:17:46.182Z,8.18
2022-12-11T13:19:49.792Z,9.30
2022-12-11T13:22:06.399Z,11.02
2022-12-11T13:24:15.167Z,11.20
2022-12-11T13:26:29.195Z,13.18
2022-12-11T13:28:39.671Z,12.98
2022-12-11T13:30:41.468Z,15.35
2022-12-11T13:33:09.760Z,12.15
2022-12-11T13:35:17.382Z,12.05
2022-12-11T13:37:41.294Z,9.90
2022-12-11T13:39:46.881Z,12.10
2022-12-11T13:41:53.384Z,8.73
2022-12-11T13:43:55.660Z,12.32
2022-12-11T13:46:02.450Z,10.82
2022-12-11T13:48:06.081Z,8.35
2022-12-11T13:50:24.607Z,11.10
2022-12-11T13:52:27.827Z,10.25
2022-12-11T13:54:31.420Z,9.85
2022-12-11T13:56:33.297Z,9.77
2022-12-11T13:58:38.232Z,9.00
2022-12-11T14:00:40.105Z,9.95
2022-12-11T14:02:42.777Z,8.93
2022-12-11T14:04:45.391Z,8.10
2022-12-11T14:06:47.195Z,7.65
2022-12-11T14:08:51.545Z,8.27
2022-12-11T14:10:54.398Z,9.05
2022-12-11T14:12:56.071Z,7.63
2022-12-11T14:15:00.208Z,8.75
2022-12-11T14:17:02.218Z,10.05
2022-12-11T14:19:06.899Z,8.98
2022-12-11T14:21:19.635Z,9.48
2022-12-11T14:23:24.388Z,9.20
2022-12-11T14:25:27.585Z,8.65
2022-12-11T14:27:30.045Z,9.95
2022-12-11T14:29:33.191Z,8.63
2022-12-11T14:31:42.712Z,8.88
2022-12-11T14:33:49.439Z,10.30
2022-12-11T14:35:53.288Z,9.00
2022-12-11T14:37:55.459Z,9.20
2022-12-11T14:40:02.939Z,9.32
2022-12-11T14:42:08.471Z,9.30
2022-12-11T14:44:15.564Z,8.25
2022-12-11T14:46:38.722Z,9.00
2022-12-11T14:48:46.374Z,10.23
2022-12-11T14:50:52.112Z,11.05
2022-12-11T14:52:59.961Z,11.07
2022-12-11T14:55:09.294Z,10.85
2022-12-11T14:57:19.705Z,8.63
2022-12-11T14:59:26.938Z,13.18
2022-12-11T15:01:35.524Z,13.23
2022-12-11T15:03:42.526Z,11.93
2022-12-11T15:05:55.652Z,9.13
2022-12-11T15:08:11.000Z,9.20
2022-12-11T15:10:43.030Z,10.13
2022-12-11T15:12:45.428Z,9.30
2022-12-11T15:14:51.759Z,10.35
2022-12-11T15:16:55.314Z,9.67
2022-12-11T15:18:59.271Z,9.18
2022-12-11T15:21:04.009Z,9.57
2022-12-11T15:23:08.047Z,10.80
2022-12-11T15:25:19.008Z,8.50
2022-12-11T15:27:31.006Z,10.87
2022-12-11T15:29:38.685Z,10.17
2022-12-11T15:31:40.435Z,13.88
2022-12-11T15:33:47.892Z,11.10
2022-12-11T15:36:22.617Z,8.80
2022-12-11T15:38:38.715Z,9.80
2022-12-11T15:40:40.438Z,10.38
2022-12-11T15:42:42.243Z,9.40
2022-12-11T15:44:44.201Z,10.83
2022-12-11T15:46:46.296Z,11.80
2022-12-11T15:48:49.052Z,9.67
2022-12-11T15:50:50.941Z,11.17
2022-12-11T15:52:54.501Z,11.50
2022-12-11T15:54:56.356Z,9.20
2022-12-11T15:57:04.223Z,11.20
2022-12-11T15:59:07.073Z,9.43
2022-12-11T16:01:09.036Z,10.30
2022-12-11T16:03:15.490Z,9.10
2022-12-11T16:05:17.231Z,9.37
2022-12-11T16:07:24.390Z,10.53
2022-12-11T16:09:26.161Z,11.00
2022-12-11T16:11:27.876Z,11.10
2022-12-11T16:13:29.764Z,11.57
2022-12-11T16:15:31.718Z,10.30
2022-12-11T16:17:33.667Z,10.57
2022-12-11T16:19:35.988Z,9.57
2022-12-11T16:21:37.699Z,9.43
2022-12-11T16:23:39.390Z,12.33
2022-12-11T16:25:42.560Z,10.90
2022-12-11T16:27:44.278Z,12.67
2022-12-11T16:29:46.391Z,15.67
2022-12-11T16:31:48.290Z,9.07
2022-12-11T16:33:50.055Z,11.47
2022-12-11T16:35:51.830Z,11.70
2022-12-11T16:37:54.413Z,11.93
2022-12-11T16:39:56.250Z,13.57
2022-12-11T16:41:57.952Z,13.03
2022-12-11T16:44:01.214Z,12.13
2022-12-11T16:46:03.127Z,11.93
2022-12-11T16:48:05.209Z,16.77
2022-12-11T16:50:07.568Z,13.63
2022-12-11T16:52:09.455Z,14.90
2022-12-11T16:54:11.635Z,12.10
2022-12-11T16:56:13.440Z,11.60
2022-12-11T16:58:19.963Z,12.10
2022-12-11T17:00:22.127Z,11.23
2022-12-11T17:02:24.011Z,11.83
2022-12-11T17:04:28.681Z,12.20
2022-12-11T17:06:30.411Z,13.17
2022-12-11T17:08:32.098Z,13.60
2022-12-11T17:10:34.344Z,12.77
2022-12-11T17:12:36.235Z,12.63
2022-12-11T17:14:37.912Z,13.00
2022-12-11T17:16:39.694Z,12.93
2022-12-11T17:18:42.636Z,12.00
2022-12-11T17:20:44.971Z,12.97
2022-12-11T17:22:46.954Z,12.23
2022-12-11T17:24:48.710Z,11.97
2022-12-11T17:26:50.559Z,12.70
2022-12-11T17:28:52.392Z,11.33
2022-12-11T17:30:54.279Z,12.37
2022-12-11T17:32:55.981Z,12.63
2022-12-11T17:34:57.750Z,12.60
2022-12-11T17:36:59.506Z,13.37
2022-12-11T17:39:01.278Z,11.90
2022-12-11T17:41:07.467Z,13.03
2022-12-11T17:43:10.862Z,12.63
2022-12-11T17:45:13.206Z,12.20
2022-12-11T17:47:15.403Z,10.63
2022-12-11T17:49:17.143Z,11.97
2022-12-11T17:51:24.576Z,11.90
2022-12-11T17:53:26.480Z,9.70
2022-12-11T17:55:28.403Z,12.33
2022-12-11T17:57:30.246Z,12.23
2022-12-11T17:59:37.077Z,11.37
2022-12-11T18:02:17.535Z,11.13
2022-12-11T18:04:19.603Z,11.93
2022-12-11T18:06:23.144Z,11.60
2022-12-11T18:08:27.257Z,11.27
2022-12-11T18:10:29.246Z,12.27
2022-12-11T18:12:31.432Z,12.43
2022-12-11T18:14:33.292Z,10.05
2022-12-11T18:16:38.120Z,11.75
2022-12-11T18:18:40.521Z,11.17
2022-12-11T18:20:42.367Z,11.20
2022-12-11T18:22:44.035Z,11.50
2022-12-11T18:24:46.010Z,11.77
2022-12-11T18:26:48.724Z,12.27
2022-12-11T18:28:53.048Z,12.48
2022-12-11T18:30:54.916Z,13.48
2022-12-11T18:32:56.683Z,14.25
2022-12-11T18:34:58.404Z,21.73
2022-12-11T18:37:00.247Z,15.05
2022-12-11T18:39:02.007Z,15.18
2022-12-11T18:41:05.369Z,15.30
2022-12-11T18:43:07.146Z,14.83
2022-12-11T18:45:09.593Z,13.30
2022-12-11T18:47:11.468Z,14.43
2022-12-11T18:49:13.181Z,14.82
2022-12-11T18:51:18.625Z,13.23
2022-12-11T18:53:20.332Z,12.93
2022-12-11T18:55:22.282Z,12.87
2022-12-11T18:57:24.162Z,13.70
2022-12-11T18:59:26.574Z,14.02
2022-12-11T19:01:29.406Z,12.57
2022-12-11T19:03:31.094Z,12.45
2022-12-11T19:05:33.951Z,13.40
2022-12-11T19:07:35.973Z,13.00
2022-12-11T19:09:38.829Z,12.63
2022-12-11T19:11:42.475Z,12.88
2022-12-11T19:13:44.859Z,11.80
2022-12-11T19:15:46.616Z,11.70
2022-12-11T19:17:48.418Z,13.25
2022-12-11T19:19:50.487Z,11.05
2022-12-11T19:21:52.236Z,13.13
2022-12-11T19:23:54.087Z,11.70
2022-12-11T19:25:56.028Z,11.73
2022-12-11T19:27:57.695Z,11.93
2022-12-11T19:30:02.397Z,10.88
2022-12-11T19:32:04.943Z,11.88
2022-12-11T19:34:06.665Z,11.70
2022-12-11T19:36:18.292Z,11.57
2022-12-11T19:38:20.344Z,12.90
2022-12-11T19:40:26.288Z,13.27
2022-12-11T19:42:27.955Z,12.45
2022-12-11T19:44:29.711Z,12.60
2022-12-11T19:46:31.590Z,12.82
2022-12-11T19:48:35.075Z,10.45
2022-12-11T19:50:36.723Z,10.32
2022-12-11T19:52:44.484Z,10.60
2022-12-11T19:54:47.877Z,12.98
2022-12-11T19:56:49.592Z,11.60
2022-12-11T19:58:51.336Z,11.77
2022-12-11T20:00:54.202Z,11.57
2022-12-11T20:02:56.035Z,12.40
2022-12-11T20:04:57.818Z,11.03
2022-12-11T20:06:59.491Z,12.93
2022-12-11T20:09:02.258Z,13.00
2022-12-11T20:11:12.848Z,12.80
2022-12-11T20:13:17.955Z,11.77
2022-12-11T20:15:24.315Z,11.65
2022-12-11T20:17:26.104Z,9.45
2022-12-11T20:19:27.994Z,10.80
2022-12-11T20:21:29.720Z,10.05
2022-12-11T20:23:31.591Z,13.07
2022-12-11T20:25:33.343Z,11.87
2022-12-11T20:27:35.085Z,15.40
2022-12-11T20:29:38.001Z,16.55
2022-12-11T20:31:39.898Z,15.38
2022-12-11T20:33:41.750Z,13.07
2022-12-11T20:35:43.664Z,13.13
2022-12-11T20:37:45.955Z,11.68
2022-12-11T20:39:47.830Z,12.97
2022-12-11T20:41:49.532Z,11.05
2022-12-11T20:43:54.053Z,12.35
2022-12-11T20:45:55.915Z,10.73
2022-12-11T20:47:57.688Z,10.35
2022-12-11T20:49:59.677Z,13.15
2022-12-11T20:52:01.484Z,12.45
2022-12-11T20:54:03.228Z,12.68
2022-12-11T20:56:13.840Z,11.27
2022-12-11T20:58:15.500Z,11.97
2022-12-11T21:00:17.746Z,12.05
2022-12-11T21:02:19.627Z,11.18
2022-12-11T21:04:22.463Z,11.97
2022-12-11T21:06:25.943Z,11.47
2022-12-11T21:08:27.679Z,11.35
2022-12-11T21:10:29.518Z,11.82
2022-12-11T21:12:31.800Z,12.25
2022-12-11T21:14:33.983Z,11.55
2022-12-11T21:16:36.945Z,12.95
2022-12-11T21:18:41.594Z,11.10
2022-12-11T21:20:43.353Z,10.63
2022-12-11T21:22:45.117Z,12.10
2022-12-11T21:24:46.944Z,12.35
2022-12-11T21:26:49.902Z,13.27
2022-12-11T21:28:52.277Z,13.05
2022-12-11T21:30:54.217Z,10.07
2022-12-11T21:32:55.969Z,12.68
2022-12-11T21:34:59.355Z,11.57
2022-12-11T21:37:01.179Z,12.52
2022-12-11T21:39:04.433Z,13.18
2022-12-11T21:41:10.999Z,11.45
2022-12-11T21:43:12.702Z,11.63
2022-12-11T21:46:10.319Z,12.63
2022-12-11T21:47:36.337Z,12.18
2022-12-11T21:49:38.264Z,11.82
2022-12-11T21:51:46.819Z,12.75
2022-12-11T21:53:49.431Z,15.13
2022-12-11T21:55:51.597Z,15.00
2022-12-11T21:57:54.613Z,11.85
2022-12-11T21:59:56.359Z,14.17
2022-12-11T22:01:58.171Z,12.53
2022-12-11T22:04:00.743Z,12.40
2022-12-11T22:06:02.514Z,12.80
2022-12-11T22:08:04.345Z,11.95
2022-12-11T22:10:06.812Z,13.10
2022-12-11T22:12:23.612Z,12.03
2022-12-11T22:14:25.387Z,11.57
2022-12-11T22:16:27.263Z,13.10
2022-12-11T22:18:30.029Z,11.50
2022-12-11T22:20:31.850Z,10.80
2022-12-11T22:22:33.540Z,10.52
2022-12-11T22:24:35.376Z,11.27
2022-12-11T22:26:37.118Z,11.20
2022-12-11T22:28:38.876Z,12.95
2022-12-11T22:30:40.705Z,10.45
2022-12-11T22:32:43.336Z,11.95
2022-12-11T22:34:45.103Z,12.25
2022-12-11T22:36:46.841Z,10.10
2022-12-11T22:38:48.585Z,11.82
2022-12-11T22:40:50.395Z,9.45
2022-12-11T22:42:52.162Z,12.38
2022-12-11T22:44:53.925Z,11.43
2022-12-11T22:46:55.656Z,11.80
2022-12-11T22:48:58.220Z,10.40
2022-12-11T22:51:04.983Z,10.80
2022-12-11T22:53:07.276Z,11.38
2022-12-11T22:55:09.521Z,12.55
2022-12-11T22:57:11.723Z,12.23
2022-12-11T22:59:13.525Z,11.70
2022-12-11T23:01:18.493Z,13.05
2022-12-11T23:03:20.202Z,10.93
2022-12-11T23:05:22.009Z,10.38
2022-12-11T23:07:23.701Z,10.65
2022-12-11T23:09:25.549Z,10.65
2022-12-11T23:11:37.088Z,11.38
2022-12-11T23:13:38.959Z,12.20
2022-12-11T23:15:41.262Z,12.70
2022-12-11T23:17:43.014Z,15.40
2022-12-11T23:19:46.266Z,13.18
2022-12-11T23:21:48.331Z,13.50
2022-12-11T23:23:50.824Z,12.23
2022-12-11T23:25:52.672Z,12.70
2022-12-11T23:27:54.445Z,11.07
2022-12-11T23:29:56.672Z,10.63
2022-12-11T23:31:58.653Z,12.23
2022-12-11T23:34:00.642Z,11.45
2022-12-11T23:36:03.249Z,11.88
2022-12-11T23:38:05.555Z,10.83
2022-12-11T23:40:09.143Z,10.68
2022-12-11T23:42:10.863Z,11.20
2022-12-11T23:44:12.726Z,10.23
2022-12-11T23:46:17.318Z,10.80
2022-12-11T23:48:19.735Z,11.53
2022-12-11T23:50:22.043Z,9.80
2022-12-11T23:52:25.108Z,11.53
2022-12-11T23:54:27.190Z,11.03
2022-12-11T23:56:30.158Z,10.07
2022-12-11T23:58:32.426Z,10.20
